Time;durP1;ratioP1;P1;durP2;ratioP2;P2;SDS_P1;SDS_P2;PMS_P1;PMS_P2;Temp;Humidity;BMP_temperature;BMP_pressure;BME280_temperature;BME280_humidity;BME280_pressure;Samples;Min_cycle;Max_cycle;Signal;HPM_P1;HPM_P2
2022/10/17 00:02:25;;;;;;;;;;;;;;;;;;5060562;28;20041;-85
2022/10/17 00:04:51;;;;;;;0.40;0.40;;;;;;;;;;5089423;28;20544;-85
2022/10/17 00:07:17;;;;;;;0.40;0.40;;;;;;;;;;5095069;28;20631;-86
2022/10/17 00:09:43;;;;;;;;;;;;;;;;;;5082332;28;20079;-86
2022/10/17 00:12:11;;;;;;;0.43;0.43;;;;;;;;;;5093700;28;19947;-83
2022/10/17 00:14:46;;;;;;;0.43;0.43;;;;;;;;;;5078451;28;20071;-85
2022/10/17 00:17:14;;;;;;;0.70;0.70;;;;;;;;;;5065493;28;20542;-85
2022/10/17 00:19:40;;;;;;;0.40;0.40;;;;;;;;;;5058255;28;20068;-84
2022/10/17 00:22:06;;;;;;;0.35;0.35;;;;;;;;;;5078022;28;20047;-86
2022/10/17 00:24:32;;;;;;;0.47;0.47;;;;;;;;;;5061316;28;20040;-85
2022/10/17 00:26:58;;;;;;;;;;;;;;;;;;5059259;28;20040;-86
2022/10/17 00:32:41;;;;;;;0.30;0.30;;;;;;;;;;5081563;28;20060;-85
2022/10/17 00:35:07;;;;;;;;;;;;;;;;;;5085558;28;20068;-87
2022/10/17 00:37:33;;;;;;;0.38;0.38;;;;;;;;;;5091406;28;19916;-85
2022/10/17 00:39:59;;;;;;;0.30;0.30;;;;;;;;;;5067501;28;20394;-85
2022/10/17 00:42:25;;;;;;;;;;;;;;;;;;5088532;28;20040;-86
2022/10/17 00:45:15;;;;;;;0.35;0.35;;;;;;;;;;5076579;28;19920;-83
2022/10/17 00:47:41;;;;;;;0.40;0.40;;;;;;;;;;5070086;28;20131;-84
2022/10/17 00:50:09;;;;;;;0.30;0.30;;;;;;;;;;5091283;28;20047;-84
2022/10/17 00:52:35;;;;;;;0.30;0.30;;;;;;;;;;5059418;28;20054;-84
2022/10/17 00:55:11;;;;;;;0.40;0.40;;;;;;;;;;5076203;28;20048;-84
2022/10/17 00:57:38;;;;;;;0.30;0.30;;;;;;;;;;5090536;28;20436;-84
2022/10/17 01:00:06;;;;;;;0.32;0.32;;;;;;;;;;5093250;28;20036;-84
2022/10/17 01:02:32;;;;;;;0.40;0.40;;;;;;;;;;5076065;28;20512;-85
2022/10/17 01:04:58;;;;;;;0.40;0.40;;;;;;;;;;5055751;28;20036;-86
2022/10/17 01:07:24;;;;;;;;;;;;;;;;;;5087008;28;20082;-86
2022/10/17 01:09:51;;;;;;;0.22;0.22;;;;;;;;;;5086619;28;19963;-86
2022/10/17 01:12:22;;;;;;;0.30;0.30;;;;;;;;;;5093670;28;20079;-86
2022/10/17 01:14:51;;;;;;;0.30;0.30;;;;;;;;;;5073208;28;20039;-86
2022/10/17 01:17:17;;;;;;;0.30;0.30;;;;;;;;;;5093189;28;20111;-86
2022/10/17 01:19:59;;;;;;;0.30;0.30;;;;;;;;;;5068899;28;20127;-87
2022/10/17 01:22:37;;;;;;;0.30;0.30;;;;;;;;;;5071272;28;20072;-86
2022/10/17 01:25:27;;;;;;;0.30;0.30;;;;;;;;;;5087218;28;20354;-86
2022/10/17 01:28:04;;;;;;;0.30;0.30;;;;;;;;;;5087096;28;20037;-86
2022/10/17 01:31:17;;;;;;;0.35;0.35;;;11.20;99.90;;;;;;5092693;28;20394;-83
2022/10/17 01:33:54;;;;;;;0.30;0.30;;;11.20;99.90;;;;;;5023364;28;20550;-83
2022/10/17 01:36:46;;;;;;;0.40;0.40;;;11.20;99.90;;;;;;5079620;28;20298;-82
2022/10/17 01:39:24;;;;;;;0.40;0.40;;;11.30;99.90;;;;;;5089087;28;20126;-83
2022/10/17 01:42:01;;;;;;;0.40;0.40;;;11.40;99.90;;;;;;5064169;28;20124;-82
2022/10/17 01:44:47;;;;;;;0.32;0.32;;;11.40;99.90;;;;;;5092171;28;20043;-83
2022/10/17 01:47:18;;;;;;;0.30;0.30;;;11.50;99.90;;;;;;5070055;28;20437;-83
2022/10/17 01:49:45;;;;;;;0.38;0.38;;;11.60;99.90;;;;;;5081085;28;20040;-83
2022/10/17 01:52:26;;;;;;;0.20;0.20;;;11.70;99.90;;;;;;5081272;28;20058;-83
2022/10/17 01:55:01;;;;;;;0.30;0.30;;;11.80;99.90;;;;;;5065059;28;20035;-80
2022/10/17 01:57:39;;;;;;;0.30;0.30;;;11.80;99.90;;;;;;5062013;28;20071;-84
2022/10/17 02:00:10;;;;;;;0.30;0.30;;;11.90;99.90;;;;;;5087690;28;20032;-84
2022/10/17 02:02:36;;;;;;;0.20;0.20;;;11.90;99.90;;;;;;5085215;28;20040;-83
2022/10/17 02:05:03;;;;;;;0.30;0.30;;;11.90;99.90;;;;;;5091903;28;20389;-85
2022/10/17 02:07:28;;;;;;;0.40;0.40;;;11.90;99.90;;;;;;5090792;28;20127;-83
2022/10/17 02:09:54;;;;;;;0.20;0.20;;;12.00;99.90;;;;;;5074139;28;20126;-84
2022/10/17 02:12:46;;;;;;;0.30;0.30;;;12.00;99.90;;;;;;5079569;28;20140;-85
2022/10/17 02:15:34;;;;;;;0.20;0.20;;;12.00;99.90;;;;;;5059697;28;20055;-84
2022/10/17 02:18:10;;;;;;;0.20;0.20;;;12.00;99.90;;;;;;5090632;28;20050;-83
2022/10/17 02:20:56;;;;;;;0.38;0.38;;;11.90;99.90;;;;;;5086170;28;20064;-82
2022/10/17 02:23:44;;;;;;;0.52;0.52;;;11.90;99.90;;;;;;5089361;28;20048;-83
2022/10/17 02:26:32;;;;;;;0.30;0.30;;;11.80;99.90;;;;;;5084995;28;20051;-84
2022/10/17 02:29:20;;;;;;;0.45;0.45;;;11.80;99.90;;;;;;5079861;28;20036;-81
2022/10/17 02:31:53;;;;;;;0.40;0.40;;;11.80;99.90;;;;;;5074566;28;20079;-82
2022/10/17 02:34:25;;;;;;;0.30;0.30;;;11.80;99.90;;;;;;5087331;28;20435;-82
2022/10/17 02:36:56;;;;;;;0.28;0.28;;;11.80;99.90;;;;;;5084074;28;20088;-84
2022/10/17 02:39:23;;;;;;;0.28;0.28;;;11.80;99.90;;;;;;5082484;28;20040;-83
2022/10/17 02:41:51;;;;;;;0.30;0.30;;;11.80;99.90;;;;;;5066894;28;20097;-82
2022/10/17 02:44:17;;;;;;;0.30;0.30;;;11.80;99.90;;;;;;5074268;28;20047;-82
2022/10/17 02:46:51;;;;;;;0.28;0.28;;;11.80;99.90;;;;;;5074236;28;20048;-82
2022/10/17 02:49:22;;;;;;;0.40;0.40;;;11.70;99.90;;;;;;5066592;28;20043;-81
2022/10/17 02:52:14;;;;;;;0.43;0.43;;;11.80;99.90;;;;;;5067386;28;20590;-82
2022/10/17 02:55:17;;;;;;;0.35;0.35;;;11.80;99.90;;;;;;5066776;28;20119;-84
2022/10/17 02:58:13;;;;;;;0.65;0.65;;;11.80;99.90;;;;;;5084980;28;20101;-84
2022/10/17 03:00:40;;;;;;;0.35;0.35;;;11.80;99.90;;;;;;5094553;28;20040;-84
2022/10/17 03:03:22;;;;;;;0.35;0.35;;;11.70;99.90;;;;;;5071450;28;20244;-83
2022/10/17 03:05:48;;;;;;;0.30;0.30;;;11.70;99.90;;;;;;5059156;28;20044;-82
2022/10/17 03:08:14;;;;;;;0.30;0.30;;;11.70;99.90;;;;;;5088942;28;20093;-83
2022/10/17 03:10:39;;;;;;;0.30;0.30;;;11.70;99.90;;;;;;5092432;28;20048;-83
2022/10/17 03:13:05;;;;;;;0.30;0.30;;;11.60;99.90;;;;;;5079504;28;20512;-83
2022/10/17 03:15:31;;;;;;;0.50;0.35;;;11.70;99.90;;;;;;5085799;28;20051;-83
2022/10/17 03:17:56;;;;;;;0.30;0.30;;;11.70;99.90;;;;;;5085994;28;20047;-82
2022/10/17 03:20:22;;;;;;;0.30;0.30;;;11.70;99.90;;;;;;5090618;28;20046;-83
2022/10/17 03:22:47;;;;;;;0.40;0.40;;;11.70;99.90;;;;;;5090372;28;20090;-83
2022/10/17 03:25:13;;;;;;;0.40;0.40;;;11.70;99.90;;;;;;5073074;28;20047;-83
2022/10/17 03:27:39;;;;;;;0.63;0.55;;;11.70;99.90;;;;;;5088356;28;20028;-83
2022/10/17 03:30:05;;;;;;;0.40;0.40;;;11.70;99.90;;;;;;5084073;28;20170;-82
2022/10/17 03:32:33;;;;;;;0.32;0.32;;;11.70;99.90;;;;;;5091584;28;20051;-82
2022/10/17 03:34:58;;;;;;;0.30;0.30;;;11.70;99.90;;;;;;5094228;28;20052;-82
2022/10/17 03:37:24;;;;;;;0.75;0.75;;;11.80;99.90;;;;;;5093394;28;20056;-82
2022/10/17 03:39:50;;;;;;;0.32;0.32;;;11.80;99.90;;;;;;5092006;28;20066;-84
2022/10/17 03:42:16;;;;;;;0.45;0.45;;;11.80;99.90;;;;;;5071912;28;20094;-83
2022/10/17 03:44:42;;;;;;;0.30;0.30;;;11.80;99.90;;;;;;5096083;28;20047;-83
2022/10/17 03:47:07;;;;;;;0.30;0.30;;;11.90;99.90;;;;;;5094894;28;20032;-84
2022/10/17 03:49:33;;;;;;;0.80;0.80;;;11.90;99.90;;;;;;5095623;28;20072;-83
2022/10/17 03:51:59;;;;;;;0.30;0.30;;;11.90;99.90;;;;;;5070277;28;20035;-84
2022/10/17 03:54:24;;;;;;;0.30;0.30;;;12.00;99.90;;;;;;5089899;28;20036;-83
2022/10/17 03:56:50;;;;;;;0.35;0.35;;;12.00;99.90;;;;;;5066311;28;20057;-84
2022/10/17 03:59:16;;;;;;;0.30;0.30;;;12.00;99.90;;;;;;5087475;28;20473;-82
2022/10/17 04:01:42;;;;;;;0.75;0.60;;;12.00;99.90;;;;;;5089132;28;20036;-81
2022/10/17 04:04:08;;;;;;;;;;;12.00;99.90;;;;;;5092140;28;20392;-81
2022/10/17 04:06:34;;;;;;;0.40;0.40;;;12.00;99.90;;;;;;5093526;28;19920;-82
2022/10/17 04:09:00;;;;;;;0.45;0.45;;;12.00;99.90;;;;;;5075448;28;20032;-82
2022/10/17 04:11:25;;;;;;;0.38;0.38;;;12.00;99.90;;;;;;5085015;28;20047;-83
2022/10/17 04:13:53;;;;;;;1.17;0.65;;;12.00;99.90;;;;;;5090313;28;20431;-83
2022/10/17 04:16:19;;;;;;;0.63;0.63;;;12.00;99.90;;;;;;5073680;28;20036;-84
2022/10/17 04:18:45;;;;;;;0.40;0.40;;;11.90;99.90;;;;;;5062956;28;20067;-82
2022/10/17 04:21:12;;;;;;;0.47;0.47;;;11.90;99.90;;;;;;5081523;28;20040;-84
2022/10/17 04:23:38;;;;;;;0.28;0.28;;;11.90;99.90;;;;;;5092498;28;20048;-83
2022/10/17 04:26:05;;;;;;;;;;;11.90;99.90;;;;;;5086234;28;20354;-83
2022/10/17 04:28:31;;;;;;;0.60;0.60;;;11.90;99.90;;;;;;5074545;28;19924;-83
2022/10/17 04:31:03;;;;;;;0.40;0.40;;;11.90;99.90;;;;;;5072431;28;20048;-83
2022/10/17 04:33:30;;;;;;;0.50;0.50;;;11.90;99.90;;;;;;5089753;28;20036;-82
2022/10/17 04:35:58;;;;;;;0.30;0.30;;;11.90;99.90;;;;;;5097997;28;20060;-83
2022/10/17 04:38:24;;;;;;;0.30;0.30;;;12.00;99.90;;;;;;5090669;28;20055;-82
2022/10/17 04:40:50;;;;;;;;;;;12.00;99.90;;;;;;5090126;28;20040;-83
2022/10/17 04:43:15;;;;;;;0.70;0.52;;;12.00;99.90;;;;;;5070350;28;19965;-83
2022/10/17 04:45:41;;;;;;;0.30;0.30;;;12.00;99.90;;;;;;5077480;28;20117;-83
2022/10/17 04:48:07;;;;;;;1.10;0.85;;;12.00;99.90;;;;;;5068928;28;20480;-84
2022/10/17 04:50:32;;;;;;;0.40;0.40;;;12.00;99.90;;;;;;5073408;28;20093;-84
2022/10/17 04:52:58;;;;;;;0.20;0.20;;;12.00;99.90;;;;;;5070108;28;20044;-83
2022/10/17 04:55:24;;;;;;;0.80;0.80;;;12.00;99.90;;;;;;5058750;28;20051;-83
2022/10/17 04:57:49;;;;;;;0.40;0.40;;;12.00;99.90;;;;;;5073744;28;20040;-84
2022/10/17 05:00:15;;;;;;;0.40;0.40;;;12.00;99.90;;;;;;5084930;28;20047;-83
2022/10/17 05:02:41;;;;;;;0.30;0.30;;;12.10;99.90;;;;;;5085471;28;20592;-83
2022/10/17 05:05:07;;;;;;;0.40;0.40;;;12.10;99.90;;;;;;5092044;28;20123;-84
2022/10/17 05:07:33;;;;;;;0.40;0.40;;;12.10;99.90;;;;;;5076833;28;20120;-84
2022/10/17 05:09:58;;;;;;;0.40;0.40;;;12.20;99.90;;;;;;5060382;28;20048;-85
2022/10/17 05:12:24;;;;;;;0.40;0.40;;;12.20;99.90;;;;;;5072104;28;20040;-84
2022/10/17 05:14:50;;;;;;;0.57;0.57;;;12.20;99.90;;;;;;5077345;28;20036;-84
2022/10/17 05:17:16;;;;;;;0.60;0.60;;;12.20;99.90;;;;;;5066061;28;20051;-84
2022/10/17 05:19:41;;;;;;;0.50;0.50;;;12.20;99.90;;;;;;5070325;28;20063;-84
2022/10/17 05:22:07;;;;;;;0.32;0.32;;;12.30;99.90;;;;;;5093362;28;20393;-84
2022/10/17 05:24:33;;;;;;;0.55;0.55;;;12.30;99.90;;;;;;5086038;28;20508;-82
2022/10/17 05:26:58;;;;;;;0.38;0.38;;;12.40;99.90;;;;;;5089185;28;20037;-83
2022/10/17 05:29:24;;;;;;;0.50;0.50;;;12.40;99.90;;;;;;5078893;28;20040;-84
2022/10/17 05:31:50;;;;;;;0.40;0.40;;;12.40;99.90;;;;;;5050755;28;20094;-83
2022/10/17 05:34:15;;;;;;;0.40;0.40;;;12.40;99.90;;;;;;5053931;28;20044;-83
2022/10/17 05:36:41;;;;;;;0.40;0.40;;;12.40;99.90;;;;;;5085493;28;20078;-83
2022/10/17 05:39:07;;;;;;;0.40;0.40;;;12.30;99.90;;;;;;5074629;28;20058;-84
2022/10/17 05:41:34;;;;;;;0.28;0.28;;;12.40;99.90;;;;;;5084737;28;20044;-83
2022/10/17 05:43:59;;;;;;;0.20;0.20;;;12.40;99.90;;;;;;5080308;28;20508;-83
2022/10/17 05:46:25;;;;;;;0.30;0.30;;;12.30;99.90;;;;;;5082371;28;20047;-83
2022/10/17 05:48:51;;;;;;;0.68;0.68;;;12.30;99.90;;;;;;5093830;28;20424;-83
2022/10/17 05:51:17;;;;;;;0.30;0.30;;;12.30;99.90;;;;;;5069494;28;20067;-84
2022/10/17 05:53:43;;;;;;;0.30;0.30;;;12.30;99.90;;;;;;5066772;28;20048;-83
2022/10/17 05:56:11;;;;;;;0.30;0.30;;;12.20;99.90;;;;;;5086388;28;20118;-81
2022/10/17 05:58:42;;;;;;;0.30;0.30;;;12.30;99.90;;;;;;5064952;28;20044;-84
2022/10/17 06:01:09;;;;;;;0.68;0.68;;;12.30;99.90;;;;;;5073810;28;20169;-82
2022/10/17 06:03:35;;;;;;;0.60;0.60;;;12.40;99.90;;;;;;5087055;28;20074;-83
2022/10/17 06:06:07;;;;;;;0.30;0.30;;;12.40;99.90;;;;;;5091920;28;20401;-85
2022/10/17 06:08:32;;;;;;;0.60;0.60;;;12.40;99.90;;;;;;5068485;28;20040;-83
2022/10/17 06:10:59;;;;;;;0.22;0.22;;;12.50;99.90;;;;;;5087177;28;20116;-89
2022/10/17 06:13:28;;;;;;;1.27;0.50;;;12.50;99.90;;;;;;5077011;28;20040;-85
2022/10/17 06:15:53;;;;;;;;;;;12.50;99.90;;;;;;5078145;28;20052;-85
2022/10/17 06:18:19;;;;;;;0.63;0.63;;;12.50;99.90;;;;;;5073946;28;20275;-84
2022/10/17 06:20:45;;;;;;;0.55;0.55;;;12.50;99.90;;;;;;5056269;28;20040;-84
2022/10/17 06:23:11;;;;;;;1.55;1.48;;;12.60;99.90;;;;;;5086768;28;20066;-84
2022/10/17 06:25:36;;;;;;;0.80;0.80;;;12.60;99.90;;;;;;5068772;28;20028;-84
2022/10/17 06:28:03;;;;;;;0.38;0.38;;;12.70;99.90;;;;;;5043175;28;20032;-85
2022/10/17 06:30:29;;;;;;;0.20;0.20;;;12.80;99.90;;;;;;5074472;28;20119;-84
2022/10/17 06:32:55;;;;;;;0.35;0.35;;;12.90;99.90;;;;;;5089939;28;20462;-84
2022/10/17 06:35:21;;;;;;;0.30;0.30;;;12.90;99.90;;;;;;5090692;28;20044;-84
2022/10/17 06:37:47;;;;;;;1.10;0.50;;;13.10;99.90;;;;;;5080188;28;20136;-85
2022/10/17 06:40:15;;;;;;;0.95;0.95;;;;;;;;;;5087559;28;20397;-84
2022/10/17 06:42:41;;;;;;;0.30;0.30;;;13.10;99.90;;;;;;5089776;28;20056;-82
2022/10/17 06:45:08;;;;;;;0.40;0.40;;;13.20;99.90;;;;;;5093208;28;20484;-84
2022/10/17 06:47:34;;;;;;;0.60;0.60;;;13.20;99.90;;;;;;5097192;28;20054;-84
2022/10/17 06:50:00;;;;;;;0.30;0.30;;;13.30;99.90;;;;;;5087819;28;20043;-84
2022/10/17 06:52:26;;;;;;;2.45;1.30;;;13.50;99.90;;;;;;5073610;28;20040;-85
2022/10/17 06:54:51;;;;;;;0.22;0.22;;;13.60;99.90;;;;;;5074573;28;20404;-85
2022/10/17 06:57:17;;;;;;;0.30;0.30;;;13.70;99.90;;;;;;5087155;28;20070;-82
2022/10/17 06:59:43;;;;;;;0.50;0.40;;;13.70;99.90;;;;;;5084310;28;20041;-86
2022/10/17 07:02:10;;;;;;;0.85;0.85;;;;;;;;;;5066161;28;20039;-85
2022/10/17 07:04:36;;;;;;;0.40;0.40;;;;;;;;;;5056540;28;20392;-85
2022/10/17 07:07:03;;;;;;;0.73;0.73;;;;;;;;;;5085340;28;20071;-85
2022/10/17 07:09:30;;;;;;;0.43;0.43;;;;;;;;;;5076775;28;20041;-86
2022/10/17 07:11:56;;;;;;;0.30;0.30;;;;;;;;;;5092722;28;20101;-86
2022/10/17 07:14:22;;;;;;;;;;;;;;;;;;5090358;28;20048;-86
2022/10/17 07:16:48;;;;;;;0.80;0.80;;;;;;;;;;5090305;28;19922;-87
2022/10/17 07:19:15;;;;;;;0.73;0.57;;;;;;;;;;5057341;28;20048;-83
2022/10/17 07:21:40;;;;;;;;;;;;;;;;;;5083476;28;20032;-84
2022/10/17 07:24:07;;;;;;;0.30;0.30;;;;;;;;;;5086230;28;19954;-84
2022/10/17 07:26:32;;;;;;;;;;;;;;;;;;5082608;28;20433;-84
2022/10/17 07:28:59;;;;;;;0.77;0.77;;;;;;;;;;5083552;28;20225;-85
2022/10/17 07:31:24;;;;;;;;;;;;;;;;;;5080596;28;20043;-85
2022/10/17 07:33:51;;;;;;;0.52;0.52;;;;;;;;;;5094669;28;20006;-87
2022/10/17 07:36:16;;;;;;;;;;;14.80;99.90;;;;;;5096275;28;20044;-84
2022/10/17 07:38:43;;;;;;;0.40;0.40;;;14.90;99.90;;;;;;5071712;28;20281;-85
2022/10/17 07:41:10;;;;;;;;;;;15.00;99.90;;;;;;5091439;28;20075;-85
2022/10/17 07:43:35;;;;;;;;;;;15.00;99.90;;;;;;5080295;28;19923;-84
2022/10/17 07:46:02;;;;;;;1.73;1.60;;;15.10;99.90;;;;;;5068829;28;20395;-84
2022/10/17 07:48:28;;;;;;;0.38;0.38;;;15.20;99.90;;;;;;5087271;28;20064;-86
2022/10/17 07:50:54;;;;;;;;;;;15.30;99.90;;;;;;5103227;28;20067;-85
2022/10/17 07:53:20;;;;;;;0.40;0.40;;;15.30;99.90;;;;;;5085124;28;19916;-84
2022/10/17 07:55:46;;;;;;;0.60;0.60;;;15.30;99.90;;;;;;5071132;28;20074;-84
2022/10/17 07:58:13;;;;;;;0.30;0.30;;;15.40;99.90;;;;;;5073378;28;20048;-83
2022/10/17 08:00:39;;;;;;;0.30;0.30;;;15.30;99.90;;;;;;5076885;28;20470;-86
2022/10/17 08:03:05;;;;;;;;;;;15.40;99.90;;;;;;5089133;28;20043;-85
2022/10/17 08:05:31;;;;;;;0.40;0.40;;;15.50;99.90;;;;;;5083089;28;19920;-84
2022/10/17 08:07:57;;;;;;;0.75;0.75;;;;;;;;;;5078782;28;20050;-85
2022/10/17 08:10:28;;;;;;;;;;;;;;;;;;5056767;28;20485;-84
2022/10/17 08:12:54;;;;;;;0.40;0.40;;;;;;;;;;5077795;28;19916;-84
2022/10/17 08:15:21;;;;;;;0.47;0.47;;;;;;;;;;5066980;28;20056;-85
2022/10/17 08:17:46;;;;;;;0.50;0.50;;;16.30;99.90;;;;;;5084696;28;20040;-86
2022/10/17 08:20:12;;;;;;;0.30;0.30;;;16.40;99.90;;;;;;5090623;28;20036;-85
2022/10/17 08:22:38;;;;;;;1.00;1.00;;;16.40;99.90;;;;;;5086131;28;20566;-83
2022/10/17 08:25:04;;;;;;;1.65;0.45;;;16.50;99.90;;;;;;5076522;28;20036;-86
2022/10/17 08:27:31;;;;;;;;;;;16.60;99.90;;;;;;5072078;28;20036;-80
2022/10/17 08:29:57;;;;;;;0.30;0.30;;;16.60;99.90;;;;;;5107052;28;19923;-84
2022/10/17 08:32:25;;;;;;;0.40;0.40;;;16.60;99.90;;;;;;5061647;28;20044;-84
2022/10/17 08:34:51;;;;;;;0.30;0.30;;;16.70;99.90;;;;;;5093308;28;20435;-85
2022/10/17 08:37:17;;;;;;;0.20;0.20;;;16.70;99.90;;;;;;5090385;28;20071;-85
2022/10/17 08:39:43;;;;;;;1.13;1.13;;;16.70;99.90;;;;;;5092670;28;20048;-86
2022/10/17 08:42:25;;;;;;;;;;;16.70;99.90;;;;;;5095308;28;20044;-85
2022/10/17 08:45:06;;;;;;;0.55;0.55;;;16.80;99.90;;;;;;5075459;28;19924;-86
2022/10/17 08:47:42;;;;;;;0.30;0.30;;;16.90;99.90;;;;;;5066646;28;20051;-84
2022/10/17 08:50:25;;;;;;;0.50;0.50;;;16.90;99.90;;;;;;5072232;28;20051;-86
2022/10/17 08:52:56;;;;;;;0.40;0.40;;;17.00;99.90;;;;;;5068661;28;20120;-85
2022/10/17 08:55:52;;;;;;;0.52;0.50;;;17.10;99.90;;;;;;5094429;28;20040;-85
2022/10/17 08:58:22;;;;;;;0.52;0.52;;;17.10;99.90;;;;;;5090230;28;20048;-84
2022/10/17 09:01:10;;;;;;;0.50;0.50;;;17.10;99.90;;;;;;5072076;28;20040;-83
2022/10/17 09:03:59;;;;;;;0.63;0.63;;;17.20;99.90;;;;;;5090359;28;20044;-84
2022/10/17 09:06:29;;;;;;;0.65;0.65;;;17.30;99.90;;;;;;5092875;28;20040;-83
2022/10/17 09:09:32;;;;;;;2.78;2.58;;;17.40;99.90;;;;;;5089747;28;20044;-83
2022/10/17 09:12:24;;;;;;;0.80;0.77;;;17.40;99.90;;;;;;5073275;28;20040;-85
2022/10/17 09:14:55;;;;;;;0.50;0.50;;;17.40;99.90;;;;;;5079214;28;20362;-83
2022/10/17 09:17:52;;;;;;;1.77;1.25;;;17.40;99.90;;;;;;5089787;28;20040;-83
2022/10/17 09:20:25;;;;;;;0.32;0.32;;;17.30;99.90;;;;;;5085830;28;20078;-83
2022/10/17 09:22:56;;;;;;;0.68;0.68;;;17.30;99.90;;;;;;5085655;28;20051;-83
2022/10/17 09:25:22;;;;;;;1.02;0.95;;;17.30;99.90;;;;;;5088194;28;20354;-83
2022/10/17 09:28:11;;;;;;;0.88;0.52;;;17.30;99.90;;;;;;5091290;28;20093;-83
2022/10/17 09:30:59;;;;;;;0.63;0.63;;;17.40;99.90;;;;;;5061981;28;20366;-83
2022/10/17 09:33:33;;;;;;;0.50;0.50;;;17.40;99.90;;;;;;5094410;28;20089;-83
2022/10/17 09:36:01;;;;;;;0.95;0.80;;;17.40;99.90;;;;;;5094491;28;20052;-83
2022/10/17 09:38:36;;;;;;;0.40;0.40;;;17.40;99.90;;;;;;5090128;28;20036;-83
2022/10/17 09:41:02;;;;;;;0.32;0.32;;;17.40;99.90;;;;;;5095905;28;20087;-82
2022/10/17 09:43:28;;;;;;;0.32;0.32;;;17.40;99.90;;;;;;5084742;28;20059;-82
2022/10/17 09:45:53;;;;;;;;;;;17.40;99.90;;;;;;5077676;28;20048;-83
2022/10/17 09:48:30;;;;;;;1.20;1.02;;;17.40;99.90;;;;;;5088937;28;19916;-83
2022/10/17 09:50:56;;;;;;;1.80;1.40;;;17.40;99.90;;;;;;5093780;28;20054;-84
2022/10/17 09:53:29;;;;;;;0.98;0.93;;;17.40;99.90;;;;;;5091375;28;20101;-85
2022/10/17 09:55:59;;;;;;;0.57;0.57;;;17.50;99.90;;;;;;5068981;28;20051;-83
2022/10/17 09:58:43;;;;;;;0.70;0.70;;;17.40;99.90;;;;;;5091471;28;20044;-83
2022/10/17 10:01:25;;;;;;;0.40;0.40;;;17.40;99.90;;;;;;5087187;28;20036;-85
2022/10/17 10:04:11;;;;;;;0.55;0.55;;;17.40;99.90;;;;;;5089513;28;20075;-84
2022/10/17 10:06:37;;;;;;;0.55;0.55;;;17.30;99.90;;;;;;5096225;28;20017;-83
2022/10/17 10:09:05;;;;;;;0.22;0.22;;;17.20;99.90;;;;;;5063671;28;20071;-85
2022/10/17 10:11:53;;;;;;;0.88;0.75;;;17.20;99.90;;;;;;5081746;28;20037;-84
2022/10/17 10:14:34;;;;;;;0.60;0.60;;;17.00;99.90;;;;;;5071082;28;20139;-83
2022/10/17 10:17:03;;;;;;;2.63;2.42;;;17.00;99.90;;;;;;5086402;28;20081;-84
2022/10/17 10:19:31;;;;;;;0.85;0.85;;;16.90;99.90;;;;;;5074000;28;20036;-82
2022/10/17 10:22:18;;;;;;;0.65;0.65;;;16.80;99.90;;;;;;5087178;28;20056;-84
2022/10/17 10:24:44;;;;;;;0.25;0.25;;;16.70;99.90;;;;;;5072322;28;20028;-82
2022/10/17 10:27:16;;;;;;;0.40;0.40;;;16.60;99.90;;;;;;5091212;28;20040;-83
2022/10/17 10:29:50;;;;;;;1.67;1.58;;;16.50;99.90;;;;;;5055237;28;20048;-84
2022/10/17 10:32:25;;;;;;;1.05;0.93;;;16.50;99.90;;;;;;5071707;28;20101;-86
2022/10/17 10:34:51;;;;;;;1.33;0.70;;;16.50;99.90;;;;;;5067128;28;20052;-82
2022/10/17 10:37:29;;;;;;;0.32;0.32;;;16.40;99.90;;;;;;5086344;28;20048;-83
2022/10/17 10:40:16;;;;;;;0.88;0.88;;;16.40;99.90;;;;;;5074333;28;20049;-83
2022/10/17 10:42:47;;;;;;;1.23;1.20;;;16.30;99.90;;;;;;5064906;28;20052;-81
2022/10/17 10:45:19;;;;;;;0.40;0.40;;;16.30;99.90;;;;;;5080213;28;20537;-83
2022/10/17 10:47:53;;;;;;;0.55;0.55;;;16.30;99.90;;;;;;5084794;28;20393;-83
2022/10/17 10:50:47;;;;;;;1.15;1.05;;;16.30;99.90;;;;;;5063686;28;20063;-83
2022/10/17 10:53:28;;;;;;;0.52;0.52;;;16.30;99.90;;;;;;5077382;28;20088;-83
2022/10/17 10:55:57;;;;;;;0.28;0.28;;;16.30;99.90;;;;;;5067929;28;20051;-83
2022/10/17 10:58:55;;;;;;;0.25;0.25;;;16.30;99.90;;;;;;5083301;28;20552;-83
2022/10/17 11:02:02;;;;;;;0.90;0.90;;;16.30;99.90;;;;;;5085718;28;20135;-82
2022/10/17 11:04:45;;;;;;;0.70;0.70;;;16.30;99.90;;;;;;5044793;28;20029;-82
2022/10/17 11:07:40;;;;;;;0.60;0.43;;;16.30;99.90;;;;;;5065367;28;20056;-83
2022/10/17 11:10:30;;;;;;;0.30;0.30;;;16.30;99.90;;;;;;5084423;28;20426;-83
2022/10/17 11:13:08;;;;;;;0.30;0.30;;;16.40;99.90;;;;;;5076345;28;20047;-82
2022/10/17 11:15:44;;;;;;;0.50;0.35;;;16.40;99.90;;;;;;5055208;28;20047;-82
2022/10/17 11:18:22;;;;;;;0.30;0.30;;;16.40;99.90;;;;;;5073156;28;20377;-83
2022/10/17 11:20:59;;;;;;;0.57;0.57;;;16.40;99.90;;;;;;5053651;28;20033;-82
2022/10/17 11:23:52;;;;;;;1.25;0.73;;;16.50;99.90;;;;;;5072944;28;20101;-83
2022/10/17 11:26:26;;;;;;;0.30;0.30;;;16.50;99.90;;;;;;5072058;28;20408;-83
2022/10/17 11:28:53;;;;;;;0.65;0.55;;;16.50;99.90;;;;;;5072557;28;20048;-83
2022/10/17 11:31:21;;;;;;;0.75;0.75;;;16.50;99.90;;;;;;5062520;28;20162;-82
2022/10/17 11:34:13;;;;;;;1.20;1.08;;;16.50;99.90;;;;;;5086280;28;20044;-82
2022/10/17 11:36:43;;;;;;;0.88;0.63;;;16.60;99.90;;;;;;5057136;28;20063;-82
2022/10/17 11:39:28;;;;;;;3.83;0.50;;;16.50;99.90;;;;;;5072610;28;20048;-84
2022/10/17 11:42:01;;;;;;;0.90;0.60;;;16.60;99.90;;;;;;5074114;28;21131;-83
2022/10/17 11:44:31;;;;;;;0.70;0.70;;;16.50;99.90;;;;;;5076807;28;20377;-83
2022/10/17 11:47:04;;;;;;;0.45;0.45;;;16.50;99.90;;;;;;5072569;28;20504;-83
2022/10/17 11:49:41;;;;;;;0.38;0.38;;;16.50;99.90;;;;;;5055478;28;20362;-81
2022/10/17 11:52:32;;;;;;;0.75;0.75;;;16.50;99.90;;;;;;5082242;28;20036;-82
2022/10/17 11:55:20;;;;;;;1.75;1.27;;;16.50;99.90;;;;;;5076726;28;20464;-83
2022/10/17 11:58:33;;;;;;;1.17;1.15;;;16.50;99.90;;;;;;5088265;28;20040;-83
2022/10/17 12:01:17;;;;;;;0.88;0.82;;;16.50;99.90;;;;;;5056116;28;20091;-82
2022/10/17 12:04:11;;;;;;;0.40;0.40;;;16.50;99.90;;;;;;5085781;28;20120;-84
2022/10/17 12:06:59;;;;;;;0.30;0.30;;;16.50;99.90;;;;;;5057603;28;20040;-83
2022/10/17 12:09:40;;;;;;;0.98;0.88;;;16.60;99.90;;;;;;5069585;28;20456;-84
2022/10/17 12:12:06;;;;;;;1.38;0.73;;;16.60;99.90;;;;;;5072394;28;20040;-83
2022/10/17 12:14:51;;;;;;;0.28;0.28;;;16.60;99.90;;;;;;5062159;28;20423;-83
2022/10/17 12:17:37;;;;;;;0.63;0.63;;;16.70;99.90;;;;;;5067754;28;20385;-83
2022/10/17 12:20:22;;;;;;;0.60;0.60;;;16.60;99.90;;;;;;5085793;28;20124;-82
2022/10/17 12:23:11;;;;;;;0.50;0.50;;;16.70;99.90;;;;;;5066097;28;20731;-84
2022/10/17 12:26:02;;;;;;;0.65;0.65;;;16.70;99.90;;;;;;5048489;28;20040;-84
2022/10/17 12:28:39;;;;;;;0.95;0.95;;;16.80;99.90;;;;;;5054804;28;20047;-83
2022/10/17 12:31:26;;;;;;;0.40;0.40;;;16.80;99.90;;;;;;5088857;28;20036;-83
2022/10/17 12:34:00;;;;;;;0.30;0.30;;;16.90;99.90;;;;;;5075008;28;20498;-83
2022/10/17 12:36:27;;;;;;;0.65;0.65;;;17.00;99.90;;;;;;5094238;28;20052;-82
2022/10/17 12:39:14;;;;;;;;;;;17.00;99.90;;;;;;5080695;28;20047;-84
2022/10/17 12:41:40;;;;;;;0.98;0.98;;;17.00;99.90;;;;;;5068728;28;19920;-83
2022/10/17 12:44:20;;;;;;;0.70;0.70;;;17.00;99.90;;;;;;5093203;28;20047;-82
2022/10/17 12:47:37;;;;;;;1.50;0.65;;;17.00;99.90;;;;;;5077458;28;20268;-83
2022/10/17 12:50:03;;;;;;;0.73;0.73;;;17.00;99.90;;;;;;5080213;28;20124;-83
2022/10/17 12:52:31;;;;;;;0.40;0.40;;;16.90;99.90;;;;;;5072492;28;20506;-83
2022/10/17 12:55:03;;;;;;;0.52;0.52;;;16.90;99.90;;;;;;5073255;28;20047;-84
2022/10/17 12:57:55;;;;;;;1.05;0.82;;;16.90;99.90;;;;;;5072042;28;20041;-83
2022/10/17 13:00:27;;;;;;;0.65;0.65;;;16.90;99.90;;;;;;5075545;28;20052;-84
2022/10/17 13:02:55;;;;;;;0.63;0.63;;;16.80;99.90;;;;;;5082811;28;20036;-83
2022/10/17 13:05:30;;;;;;;0.30;0.30;;;16.80;99.90;;;;;;5076117;28;20062;-83
2022/10/17 13:07:59;;;;;;;0.43;0.43;;;16.70;99.90;;;;;;5056865;28;20122;-82
2022/10/17 13:10:28;;;;;;;0.25;0.25;;;16.70;99.90;;;;;;5055860;28;20133;-83
2022/10/17 13:13:04;;;;;;;0.40;0.40;;;16.70;99.90;;;;;;5075044;28;20051;-83
2022/10/17 13:15:32;;;;;;;2.77;0.63;;;16.60;99.90;;;;;;5075903;28;20067;-83
2022/10/17 13:17:59;;;;;;;0.38;0.38;;;16.60;99.90;;;;;;5080177;28;20703;-83
2022/10/17 13:20:27;;;;;;;2.58;1.00;;;16.60;99.90;;;;;;5078030;28;20106;-83
2022/10/17 13:22:55;;;;;;;0.30;0.30;;;16.60;99.90;;;;;;5095264;28;20124;-82
2022/10/17 13:25:22;;;;;;;0.30;0.30;;;16.60;99.90;;;;;;5069472;28;20076;-83
2022/10/17 13:27:49;;;;;;;0.57;0.57;;;16.50;99.90;;;;;;5092080;28;20032;-82
2022/10/17 13:30:23;;;;;;;0.30;0.30;;;16.40;99.90;;;;;;5088808;28;20044;-81
2022/10/17 13:32:49;;;;;;;1.45;1.30;;;16.30;99.90;;;;;;5094511;28;21613;-83
2022/10/17 13:35:24;;;;;;;0.55;0.55;;;16.20;99.90;;;;;;5064737;28;20044;-82
2022/10/17 13:37:51;;;;;;;1.60;1.50;;;16.20;99.90;;;;;;5058930;28;20051;-83
2022/10/17 13:40:24;;;;;;;0.57;0.57;;;16.10;99.90;;;;;;5046376;28;20574;-83